Time;durP1;ratioP1;P1;durP2;ratioP2;P2;SDS_P1;SDS_P2;PMS_P1;PMS_P2;Temp;Humidity;BMP_temperature;BMP_pressure;BME280_temperature;BME280_humidity;BME280_pressure;Samples;Min_cycle;Max_cycle;Signal;HPM_P1;HPM_P2
2021/05/13 00:00:47;;;;;;;2.45;0.82;;;12.60;99.90;;;;;;5038906;28;20033;-79
2021/05/13 00:03:13;;;;;;;4.95;1.00;;;12.60;99.90;;;;;;5044708;28;20025;-79
2021/05/13 00:05:39;;;;;;;1.02;0.60;;;12.60;99.90;;;;;;5034219;28;20033;-79
2021/05/13 00:08:06;;;;;;;2.00;0.65;;;12.60;99.90;;;;;;5041346;28;20037;-79
2021/05/13 00:10:32;;;;;;;1.00;0.50;;;12.40;99.90;;;;;;5040836;28;20061;-79
2021/05/13 00:13:03;;;;;;;1.90;0.93;;;12.20;99.90;;;;;;5034377;28;20104;-79
2021/05/13 00:15:37;;;;;;;1.70;0.63;;;12.10;99.90;;;;;;5041005;28;20025;-78
2021/05/13 00:18:04;;;;;;;1.63;0.82;;;12.20;99.90;;;;;;5033842;28;20060;-79
2021/05/13 00:20:57;;;;;;;2.08;1.00;;;12.30;99.90;;;;;;5043306;28;20028;-78
2021/05/13 00:23:23;;;;;;;3.70;1.02;;;12.40;99.90;;;;;;5035319;28;20033;-79
2021/05/13 00:25:51;;;;;;;1.90;0.73;;;12.40;99.90;;;;;;5034581;28;20032;-79
2021/05/13 00:28:21;;;;;;;2.00;0.63;;;12.40;99.90;;;;;;5034387;28;20100;-79
2021/05/13 00:30:48;;;;;;;2.15;0.60;;;12.40;99.90;;;;;;5033882;28;20030;-79
2021/05/13 00:33:14;;;;;;;1.75;0.70;;;12.30;99.90;;;;;;5034986;28;20045;-79
2021/05/13 00:35:39;;;;;;;3.95;0.93;;;12.40;99.90;;;;;;5043510;28;20030;-79
2021/05/13 00:38:05;;;;;;;2.92;0.73;;;12.10;99.90;;;;;;5048677;28;20029;-78
2021/05/13 00:40:33;;;;;;;1.55;0.40;;;12.00;99.90;;;;;;5035525;28;20033;-79
2021/05/13 00:42:59;;;;;;;1.95;0.80;;;11.90;99.90;;;;;;5039785;28;20109;-79
2021/05/13 00:45:25;;;;;;;1.85;0.70;;;11.90;99.90;;;;;;5040434;28;20026;-78
2021/05/13 00:50:20;;;;;;;2.15;0.90;;;11.80;99.90;;;;;;5034008;28;20068;-79
2021/05/13 00:52:46;;;;;;;2.72;1.17;;;11.70;99.90;;;;;;5034099;28;20554;-79
2021/05/13 00:55:15;;;;;;;0.80;0.60;;;11.70;99.90;;;;;;5034202;28;20388;-79
2021/05/13 00:57:44;;;;;;;3.33;1.08;;;11.80;99.90;;;;;;5033812;28;20048;-79
2021/05/13 01:02:57;;;;;;;1.45;0.88;;;11.90;99.90;;;;;;5033974;28;20044;-79
2021/05/13 01:05:24;;;;;;;2.10;0.80;;;11.90;99.90;;;;;;5034013;28;20352;-78
2021/05/13 01:07:50;;;;;;;0.82;0.50;;;12.00;99.90;;;;;;5040255;28;20083;-79
2021/05/13 01:10:16;;;;;;;1.52;0.73;;;12.00;99.90;;;;;;5032830;28;20053;-79
2021/05/13 01:12:43;;;;;;;1.77;0.75;;;12.00;99.90;;;;;;5033289;28;20112;-78
2021/05/13 01:15:25;;;;;;;1.75;0.80;;;12.00;99.90;;;;;;5039990;28;20470;-79
2021/05/13 01:18:01;;;;;;;0.98;0.60;;;12.10;99.90;;;;;;5038302;28;20025;-79
2021/05/13 01:20:28;;;;;;;1.10;0.57;;;12.00;99.90;;;;;;5040885;28;20037;-79
2021/05/13 01:22:58;;;;;;;4.22;0.70;;;12.00;99.90;;;;;;5033111;28;20383;-79
2021/05/13 01:25:26;;;;;;;3.00;0.90;;;12.00;99.90;;;;;;5033179;28;20025;-78
2021/05/13 01:28:01;;;;;;;4.45;0.98;;;11.90;99.90;;;;;;5038552;28;20359;-79
2021/05/13 01:30:29;;;;;;;0.60;0.43;;;11.90;99.90;;;;;;5033069;28;20048;-78
2021/05/13 01:32:58;;;;;;;0.50;0.25;;;11.80;99.90;;;;;;5032998;28;20021;-78
2021/05/13 01:35:25;;;;;;;2.67;0.60;;;11.80;99.90;;;;;;5032870;28;20036;-78
2021/05/13 01:38:12;;;;;;;1.42;0.57;;;11.90;99.90;;;;;;5038200;28;20022;-78
2021/05/13 01:40:38;;;;;;;1.42;0.47;;;12.00;99.90;;;;;;5043437;28;20045;-78
2021/05/13 01:43:05;;;;;;;1.30;0.75;;;12.00;99.90;;;;;;5035055;28;20025;-78
2021/05/13 01:45:31;;;;;;;1.23;0.57;;;12.10;99.90;;;;;;5034462;28;20395;-79
2021/05/13 01:48:02;;;;;;;1.50;0.70;;;12.00;99.90;;;;;;5032911;28;20026;-78
2021/05/13 01:50:32;;;;;;;1.35;0.70;;;12.00;99.90;;;;;;5040347;28;20049;-79
2021/05/13 01:53:01;;;;;;;2.03;0.60;;;12.00;99.90;;;;;;5040441;28;20064;-78
2021/05/13 01:55:27;;;;;;;2.38;0.70;;;12.00;99.90;;;;;;5035414;28;20041;-78
2021/05/13 01:57:53;;;;;;;1.42;0.60;;;11.90;99.90;;;;;;5045631;28;20435;-78
2021/05/13 02:00:20;;;;;;;2.33;0.40;;;11.70;99.90;;;;;;5033325;28;20030;-78
2021/05/13 02:02:48;;;;;;;2.05;0.40;;;11.60;99.90;;;;;;5040534;28;20068;-79
2021/05/13 02:05:14;;;;;;;2.53;0.52;;;11.50;99.90;;;;;;5032708;28;20399;-79
2021/05/13 02:07:41;;;;;;;2.25;0.55;;;11.60;99.90;;;;;;5032973;28;20029;-78
2021/05/13 02:10:07;;;;;;;0.45;0.30;;;11.50;99.90;;;;;;5030893;28;20049;-78
2021/05/13 02:12:33;;;;;;;1.05;0.60;;;11.60;99.90;;;;;;5034215;28;20041;-78
2021/05/13 02:14:58;;;;;;;2.08;0.52;;;11.60;99.90;;;;;;5035060;28;20120;-78
2021/05/13 02:17:24;;;;;;;0.77;0.35;;;11.60;99.90;;;;;;5037006;28;20487;-79
2021/05/13 02:19:50;;;;;;;0.35;0.30;;;11.50;99.90;;;;;;5040072;28;20026;-79
2021/05/13 02:22:15;;;;;;;1.17;0.47;;;11.60;99.90;;;;;;5031981;28;20543;-78
2021/05/13 02:24:41;;;;;;;1.33;0.55;;;11.60;99.90;;;;;;5034221;28;20387;-79
2021/05/13 02:27:07;;;;;;;1.88;0.73;;;11.70;99.90;;;;;;5033463;28;20056;-78
2021/05/13 02:29:32;;;;;;;1.38;0.70;;;11.70;99.90;;;;;;5032217;28;20064;-78
2021/05/13 02:31:58;;;;;;;0.85;0.47;;;11.70;99.90;;;;;;5031947;28;20033;-78
2021/05/13 02:34:24;;;;;;;0.70;0.40;;;11.50;99.90;;;;;;5031521;28;20029;-78
2021/05/13 02:36:49;;;;;;;1.40;0.52;;;11.70;99.90;;;;;;5038839;28;20092;-79
2021/05/13 02:39:15;;;;;;;1.38;0.57;;;11.70;99.90;;;;;;5036050;28;20043;-78
2021/05/13 02:41:43;;;;;;;2.00;0.75;;;11.80;99.90;;;;;;5034864;28;20553;-79
2021/05/13 02:44:09;;;;;;;1.63;0.50;;;11.70;99.90;;;;;;5031166;28;20037;-78
2021/05/13 02:46:36;;;;;;;1.45;0.68;;;11.80;99.90;;;;;;5035693;28;20518;-79
2021/05/13 02:49:03;;;;;;;1.27;0.70;;;11.70;99.90;;;;;;5031760;28;20378;-79
2021/05/13 02:51:29;;;;;;;1.90;0.82;;;11.70;99.90;;;;;;5033789;28;20120;-79
2021/05/13 02:53:55;;;;;;;4.18;0.90;;;11.60;99.90;;;;;;5042641;28;20116;-78
2021/05/13 02:56:20;;;;;;;2.15;0.55;;;11.60;99.90;;;;;;5040973;28;20881;-78
2021/05/13 02:58:49;;;;;;;0.90;0.40;;;11.60;99.90;;;;;;5036855;28;20531;-78
2021/05/13 03:01:29;;;;;;;3.13;1.25;;;11.50;99.90;;;;;;5031927;28;20017;-79
2021/05/13 03:03:56;;;;;;;2.85;0.93;;;11.50;99.90;;;;;;5029280;28;20059;-78
2021/05/13 03:06:24;;;;;;;3.95;0.80;;;11.60;99.90;;;;;;5025649;28;20032;-78
2021/05/13 03:08:53;;;;;;;1.20;0.50;;;11.80;99.90;;;;;;5025863;28;20040;-78
2021/05/13 03:11:23;;;;;;;1.13;0.50;;;11.80;99.90;;;;;;5025185;28;20048;-78
2021/05/13 03:13:52;;;;;;;1.38;0.63;;;11.70;99.90;;;;;;5023347;28;20040;-78
2021/05/13 03:16:18;;;;;;;1.55;0.65;;;11.70;99.90;;;;;;5030617;28;20516;-78
2021/05/13 03:18:48;;;;;;;3.40;0.90;;;11.80;99.90;;;;;;5029191;28;20060;-78
2021/05/13 03:24:03;;;;;;;1.17;0.43;;;11.80;99.90;;;;;;5029790;28;20037;-79
2021/05/13 03:29:27;;;;;;;3.42;0.52;;;11.70;99.90;;;;;;5047207;28;20049;-78
2021/05/13 03:31:53;;;;;;;1.02;0.70;;;11.60;99.90;;;;;;5028108;28;20549;-78
2021/05/13 03:34:19;;;;;;;1.35;0.60;;;11.60;99.90;;;;;;5023637;28;20029;-78
2021/05/13 03:36:44;;;;;;;6.32;0.75;;;11.60;99.90;;;;;;5023481;28;20040;-78
2021/05/13 03:39:10;;;;;;;1.40;0.63;;;11.60;99.90;;;;;;5032067;28;20025;-78
2021/05/13 03:41:36;;;;;;;3.35;0.75;;;11.60;99.90;;;;;;5026771;28;20178;-78
2021/05/13 03:44:04;;;;;;;1.02;0.60;;;11.50;99.90;;;;;;5031345;28;20651;-78
2021/05/13 03:46:31;;;;;;;2.00;0.95;;;11.50;99.90;;;;;;5036303;28;20037;-78
2021/05/13 03:48:57;;;;;;;1.35;0.50;;;11.60;99.90;;;;;;5023174;28;20037;-78
2021/05/13 03:51:22;;;;;;;1.17;0.70;;;11.50;99.90;;;;;;5028733;28;20033;-78
2021/05/13 03:53:48;;;;;;;1.83;0.80;;;11.50;99.90;;;;;;5023313;28;20038;-78
2021/05/13 03:56:14;;;;;;;2.53;1.20;;;11.40;99.90;;;;;;5022908;28;20598;-78
2021/05/13 03:58:52;;;;;;;4.97;0.63;;;11.30;99.90;;;;;;5021606;28;20034;-78
2021/05/13 04:01:31;;;;;;;3.20;1.13;;;11.20;99.90;;;;;;5022254;28;20037;-78
2021/05/13 04:03:56;;;;;;;1.23;0.63;;;11.20;99.90;;;;;;5029307;28;20028;-78
2021/05/13 04:06:22;;;;;;;3.40;0.95;;;11.20;99.90;;;;;;5021929;28;20021;-78
2021/05/13 04:08:49;;;;;;;1.85;0.60;;;11.30;99.90;;;;;;5023315;28;20063;-78
2021/05/13 04:11:16;;;;;;;1.10;0.63;;;11.30;99.90;;;;;;5022909;28;20076;-79
2021/05/13 04:13:43;;;;;;;1.77;0.70;;;11.30;99.90;;;;;;5023810;28;20042;-78
2021/05/13 04:16:09;;;;;;;1.33;0.77;;;11.30;99.90;;;;;;5025726;28;20040;-78
2021/05/13 04:18:35;;;;;;;3.03;0.95;;;11.20;99.90;;;;;;5030537;28;20026;-78
2021/05/13 04:21:01;;;;;;;4.07;0.63;;;11.20;99.90;;;;;;5029461;28;20035;-79
2021/05/13 04:23:27;;;;;;;1.02;0.45;;;11.30;99.90;;;;;;5031512;28;20353;-78
2021/05/13 04:25:52;;;;;;;3.33;0.90;;;11.30;99.90;;;;;;5027867;28;20041;-78
2021/05/13 04:28:18;;;;;;;2.58;0.75;;;11.40;99.90;;;;;;5022950;28;20060;-78
2021/05/13 04:30:44;;;;;;;3.17;0.90;;;11.40;99.90;;;;;;5023142;28;20039;-77
2021/05/13 04:33:09;;;;;;;5.50;0.68;;;11.40;99.90;;;;;;5023123;28;20025;-78
2021/05/13 04:35:35;;;;;;;2.60;0.70;;;11.50;99.90;;;;;;5033074;28;20026;-78
2021/05/13 04:38:01;;;;;;;3.00;0.50;;;11.60;99.90;;;;;;5026490;28;20562;-78
2021/05/13 04:40:26;;;;;;;2.08;0.75;;;11.50;99.90;;;;;;5027047;28;20021;-77
2021/05/13 04:42:52;;;;;;;2.70;0.77;;;11.50;99.90;;;;;;5024645;28;20072;-78
2021/05/13 04:45:18;;;;;;;1.23;0.75;;;11.60;99.90;;;;;;5032707;28;20028;-78
2021/05/13 04:50:10;;;;;;;3.80;1.05;;;11.70;99.90;;;;;;5032006;28;20375;-78
2021/05/13 04:52:40;;;;;;;3.70;0.80;;;11.70;99.90;;;;;;5034257;28;20117;-78
2021/05/13 04:55:07;;;;;;;1.75;0.52;;;11.70;99.90;;;;;;5025548;28;20044;-78
2021/05/13 04:57:35;;;;;;;4.90;1.33;;;11.60;99.90;;;;;;5026592;28;20053;-78
2021/05/13 05:00:03;;;;;;;2.17;0.95;;;11.60;99.90;;;;;;5026063;28;20120;-77
2021/05/13 05:02:31;;;;;;;2.17;0.82;;;11.70;99.90;;;;;;5026263;28;20025;-78
2021/05/13 05:04:56;;;;;;;1.85;0.80;;;11.80;99.90;;;;;;5026448;28;20051;-77
2021/05/13 05:07:22;;;;;;;3.15;0.85;;;11.80;99.90;;;;;;5026220;28;20037;-78
2021/05/13 05:09:48;;;;;;;1.50;1.13;;;11.90;99.90;;;;;;5034073;28;20036;-78
2021/05/13 05:12:14;;;;;;;2.45;0.93;;;11.90;99.90;;;;;;5032108;28;20176;-78
2021/05/13 05:14:40;;;;;;;1.75;0.85;;;11.90;99.90;;;;;;5034856;28;20029;-77
2021/05/13 05:17:07;;;;;;;1.63;0.73;;;12.00;99.90;;;;;;5025505;28;20882;-77
2021/05/13 05:19:32;;;;;;;2.78;0.73;;;11.90;99.90;;;;;;5025545;28;20069;-75
2021/05/13 05:21:58;;;;;;;15.23;1.38;;;12.00;99.90;;;;;;5042295;28;20068;-76
2021/05/13 05:24:24;;;;;;;4.78;1.35;;;12.00;99.90;;;;;;5042798;28;20132;-77
2021/05/13 05:26:50;;;;;;;1.35;0.80;;;11.90;99.90;;;;;;5041024;28;20036;-77
2021/05/13 05:29:16;;;;;;;3.55;1.20;;;12.00;99.90;;;;;;5046207;28;20035;-76
2021/05/13 05:31:42;;;;;;;7.30;2.22;;;11.90;99.90;;;;;;5046039;28;20075;-77
2021/05/13 05:34:07;;;;;;;3.88;2.25;;;11.90;99.90;;;;;;5045978;28;20028;-76
2021/05/13 05:36:33;;;;;;;6.70;2.28;;;12.00;99.90;;;;;;5028458;28;20056;-76
2021/05/13 05:38:59;;;;;;;4.03;1.67;;;12.10;99.90;;;;;;5026082;28;20518;-76
2021/05/13 05:41:25;;;;;;;3.90;1.85;;;12.10;99.90;;;;;;5025657;28;20029;-76
2021/05/13 05:43:51;;;;;;;3.92;1.67;;;12.10;99.90;;;;;;5040835;28;20505;-76
2021/05/13 05:46:17;;;;;;;3.13;1.10;;;12.10;99.90;;;;;;5038144;28;20025;-77
2021/05/13 05:48:44;;;;;;;4.53;1.30;;;12.20;99.90;;;;;;5044879;28;20111;-76
2021/05/13 05:51:09;;;;;;;20.45;2.45;;;12.10;99.90;;;;;;5045147;28;20025;-76
2021/05/13 05:53:35;;;;;;;5.88;1.52;;;12.10;99.90;;;;;;5045488;28;20082;-76
2021/05/13 05:56:01;;;;;;;1.98;1.08;;;12.20;99.90;;;;;;5038153;28;20060;-76
2021/05/13 05:58:27;;;;;;;2.78;1.38;;;12.20;99.90;;;;;;5025234;28;20056;-76
2021/05/13 06:00:53;;;;;;;4.88;1.33;;;12.20;99.90;;;;;;5040828;28;20278;-76
2021/05/13 06:03:19;;;;;;;3.50;1.38;;;12.20;99.90;;;;;;5045192;28;20078;-76
2021/05/13 06:05:45;;;;;;;2.40;1.27;;;12.10;99.90;;;;;;5043073;28;20029;-76
2021/05/13 06:08:11;;;;;;;8.32;1.85;;;12.30;99.90;;;;;;5026828;28;20021;-75
2021/05/13 06:10:37;;;;;;;3.80;2.35;;;12.30;99.90;;;;;;5032442;28;20075;-80
2021/05/13 06:13:06;;;;;;;5.25;2.17;;;12.30;99.90;;;;;;5025455;28;20060;-81
2021/05/13 06:15:33;;;;;;;5.65;1.60;;;12.50;99.90;;;;;;5025848;28;20135;-81
2021/05/13 06:17:58;;;;;;;5.82;2.45;;;12.70;99.90;;;;;;5041494;28;20052;-81
2021/05/13 06:20:28;;;;;;;11.07;3.25;;;12.80;99.90;;;;;;5045476;28;20040;-83
2021/05/13 06:22:55;;;;;;;4.55;1.63;;;12.90;99.90;;;;;;5045479;28;20078;-81
2021/05/13 06:25:22;;;;;;;8.38;2.38;;;12.80;99.90;;;;;;5045791;28;20108;-81
2021/05/13 06:27:47;;;;;;;10.00;2.20;;;12.90;99.90;;;;;;5032295;28;20423;-82
2021/05/13 06:30:15;;;;;;;5.20;1.60;;;12.90;99.90;;;;;;5025221;28;20044;-81
2021/05/13 06:32:42;;;;;;;3.83;1.80;;;13.00;99.90;;;;;;5025272;28;20038;-82
2021/05/13 06:35:08;;;;;;;7.13;2.53;;;13.10;99.90;;;;;;5043746;28;20032;-81
2021/05/13 06:37:34;;;;;;;5.05;2.10;;;13.10;99.90;;;;;;5048561;28;20155;-81
2021/05/13 06:40:00;;;;;;;3.55;1.75;;;13.30;99.90;;;;;;5060215;28;20510;-81
2021/05/13 06:42:26;;;;;;;6.75;2.03;;;13.30;99.90;;;;;;5025047;28;20076;-81
2021/05/13 06:44:52;;;;;;;4.78;2.22;;;13.40;99.90;;;;;;5025239;28;20624;-81
2021/05/13 06:47:18;;;;;;;4.38;2.10;;;13.30;99.90;;;;;;5025393;28;20075;-81
2021/05/13 06:49:44;;;;;;;4.43;2.42;;;13.50;99.90;;;;;;5039277;28;20055;-82
2021/05/13 06:52:10;;;;;;;3.50;2.30;;;13.70;99.90;;;;;;5026198;28;20045;-83
2021/05/13 06:54:36;;;;;;;3.88;2.35;;;14.00;99.90;;;;;;5025698;28;20084;-82
2021/05/13 06:57:02;;;;;;;2.70;1.83;;;14.30;99.90;;;;;;5024746;28;20039;-82
2021/05/13 06:59:28;;;;;;;3.97;2.08;;;14.60;99.90;;;;;;5025274;28;20036;-81
2021/05/13 07:01:57;;;;;;;3.58;1.58;;;14.80;99.90;;;;;;5024895;28;20037;-82
2021/05/13 07:04:23;;;;;;;4.03;1.52;;;15.00;99.90;;;;;;5025116;28;20040;-80
2021/05/13 07:06:49;;;;;;;4.60;2.05;;;15.00;99.90;;;;;;5025380;28;20029;-80
2021/05/13 07:09:15;;;;;;;6.47;2.03;;;15.20;99.90;;;;;;5023887;28;20088;-80
2021/05/13 07:11:41;;;;;;;3.55;1.83;;;15.40;99.90;;;;;;5042757;28;20558;-80
2021/05/13 07:14:07;;;;;;;4.88;2.08;;;15.70;99.90;;;;;;5024386;28;20029;-82
2021/05/13 07:16:34;;;;;;;2.50;1.30;;;16.30;99.90;;;;;;5024924;28;20021;-82
2021/05/13 07:19:01;;;;;;;3.15;1.52;;;17.10;99.90;;;;;;5024490;28;20679;-82
2021/05/13 07:21:26;;;;;;;4.88;1.63;;;18.10;99.90;;;;;;5024531;28;20069;-82
2021/05/13 07:23:52;;;;;;;2.20;1.27;;;18.70;99.60;;;;;;5025207;28;20104;-82
2021/05/13 07:26:18;;;;;;;3.45;1.27;;;19.40;97.70;;;;;;5044862;28;20500;-82
2021/05/13 07:28:44;;;;;;;3.05;1.42;;;20.10;97.00;;;;;;5038994;28;20025;-81
2021/05/13 07:31:11;;;;;;;2.65;1.25;;;21.10;95.50;;;;;;5038105;28;20041;-83
2021/05/13 07:33:37;;;;;;;3.72;1.60;;;21.40;94.70;;;;;;5043611;28;20028;-82
2021/05/13 07:36:06;;;;;;;2.95;1.40;;;21.60;94.70;;;;;;5045279;28;20029;-82
2021/05/13 07:38:33;;;;;;;2.05;1.10;;;21.50;94.00;;;;;;5045197;28;20025;-82
2021/05/13 07:40:59;;;;;;;5.35;1.42;;;21.20;94.70;;;;;;5044453;28;20432;-82
2021/05/13 07:43:26;;;;;;;11.20;1.30;;;20.50;95.40;;;;;;5043540;28;20099;-82
2021/05/13 07:45:52;;;;;;;6.28;1.38;;;20.70;95.30;;;;;;5044816;28;20028;-82
2021/05/13 07:48:18;;;;;;;8.50;1.75;;;21.30;95.00;;;;;;5044258;28;20028;-82
2021/05/13 07:50:44;;;;;;;2.22;1.10;;;21.50;94.50;;;;;;5044951;28;20021;-82
2021/05/13 07:53:10;;;;;;;1.77;0.90;;;21.30;94.90;;;;;;5044708;28;20025;-82
2021/05/13 07:55:37;;;;;;;2.17;1.10;;;19.50;96.10;;;;;;5037684;28;20032;-82
2021/05/13 07:58:03;;;;;;;2.28;0.98;;;17.90;97.60;;;;;;5043462;28;20025;-82
2021/05/13 08:00:29;;;;;;;7.38;1.20;;;17.30;98.10;;;;;;5025173;28;20037;-82
2021/05/13 08:02:55;;;;;;;3.42;1.10;;;17.10;99.40;;;;;;5025070;28;20100;-82
2021/05/13 08:05:21;;;;;;;9.93;1.30;;;17.50;99.10;;;;;;5024633;28;20108;-82
2021/05/13 08:07:47;;;;;;;2.30;1.30;;;18.10;98.80;;;;;;5024768;28;20539;-82
2021/05/13 08:10:13;;;;;;;1.92;1.15;;;17.90;98.10;;;;;;5026512;28;20704;-82
2021/05/13 08:12:39;;;;;;;4.43;1.48;;;18.20;98.50;;;;;;5028391;28;20044;-82
2021/05/13 08:15:08;;;;;;;2.20;1.05;;;18.60;98.10;;;;;;5028094;28;20022;-82
2021/05/13 08:17:34;;;;;;;2.78;1.17;;;18.10;98.10;;;;;;5028710;28;20048;-82
2021/05/13 08:20:01;;;;;;;4.13;1.20;;;18.10;98.20;;;;;;5028466;28;20037;-82
2021/05/13 08:22:27;;;;;;;1.70;0.90;;;17.70;98.20;;;;;;5028379;28;20108;-82
2021/05/13 08:24:52;;;;;;;6.30;1.40;;;17.70;98.90;;;;;;5028394;28;20117;-82
2021/05/13 08:27:18;;;;;;;3.03;0.85;;;17.60;98.80;;;;;;5028645;28;20104;-82
2021/05/13 08:29:44;;;;;;;3.05;1.20;;;17.40;99.30;;;;;;5028396;28;20018;-82
2021/05/13 08:32:09;;;;;;;4.10;1.20;;;17.40;99.50;;;;;;5029462;28;20061;-82
2021/05/13 08:34:35;;;;;;;3.75;1.02;;;17.50;99.40;;;;;;5036410;28;20029;-82
2021/05/13 08:37:02;;;;;;;2.15;1.25;;;17.40;98.90;;;;;;5028455;28;20071;-82
2021/05/13 08:39:27;;;;;;;2.85;1.08;;;17.50;99.40;;;;;;5028170;28;20479;-82
2021/05/13 08:41:53;;;;;;;4.13;1.00;;;17.60;99.20;;;;;;5028207;28;20032;-82
2021/05/13 08:44:19;;;;;;;3.35;1.02;;;17.70;99.20;;;;;;5027713;28;20025;-82
2021/05/13 08:46:47;;;;;;;2.92;0.90;;;17.80;98.90;;;;;;5026969;28;20030;-82
2021/05/13 08:49:12;;;;;;;2.15;0.93;;;17.70;98.10;;;;;;5027820;28;20052;-82
2021/05/13 08:51:39;;;;;;;3.42;0.77;;;17.90;98.50;;;;;;5028522;28;20491;-82
2021/05/13 08:54:06;;;;;;;2.10;0.88;;;18.10;98.70;;;;;;5028448;28;20076;-82
2021/05/13 08:56:33;;;;;;;1.95;0.80;;;18.20;98.20;;;;;;5027805;28;20070;-82
2021/05/13 08:59:05;;;;;;;2.05;0.70;;;18.10;97.50;;;;;;5027916;28;20036;-82
2021/05/13 09:01:33;;;;;;;7.97;0.95;;;18.30;97.10;;;;;;5027707;28;20104;-82
2021/05/13 09:04:01;;;;;;;3.28;1.00;;;18.50;97.20;;;;;;5027576;28;20126;-82
2021/05/13 09:06:40;;;;;;;3.35;1.27;;;18.60;97.70;;;;;;5033757;28;20404;-82
2021/05/13 09:09:11;;;;;;;1.20;0.60;;;18.80;97.00;;;;;;5047116;28;20495;-82
2021/05/13 09:11:50;;;;;;;2.15;0.73;;;18.60;96.30;;;;;;5047764;28;20728;-82
2021/05/13 09:14:24;;;;;;;5.35;0.68;;;18.70;96.30;;;;;;5027566;28;20375;-82
2021/05/13 09:16:51;;;;;;;3.00;0.98;;;18.70;96.90;;;;;;5027367;28;20083;-82
2021/05/13 09:19:24;;;;;;;5.00;0.82;;;18.90;96.30;;;;;;5027966;28;20033;-83
2021/05/13 09:22:08;;;;;;;2.90;0.67;;;18.40;96.80;;;;;;5026931;28;20030;-82
2021/05/13 09:24:57;;;;;;;1.83;0.77;;;18.70;96.90;;;;;;5025881;28;20560;-82
2021/05/13 09:27:25;;;;;;;1.77;0.70;;;18.90;96.70;;;;;;5026949;28;20029;-82
2021/05/13 09:30:24;;;;;;;3.05;0.70;;;18.90;96.20;;;;;;5026808;28;20053;-82
2021/05/13 09:32:55;;;;;;;1.30;0.50;;;19.10;96.50;;;;;;5027253;28;20461;-82
2021/05/13 09:35:23;;;;;;;4.07;0.90;;;19.10;94.70;;;;;;5027056;28;20379;-83
2021/05/13 09:38:16;;;;;;;2.80;0.88;;;19.00;94.60;;;;;;5038054;28;20028;-82
2021/05/13 09:40:50;;;;;;;19.15;1.27;;;19.10;94.40;;;;;;5037422;28;20542;-82
2021/05/13 09:43:24;;;;;;;2.35;0.82;;;19.30;95.00;;;;;;5046029;28;20429;-82
2021/05/13 09:45:51;;;;;;;1.40;0.60;;;19.50;96.70;;;;;;5047061;28;20128;-82
2021/05/13 09:48:44;;;;;;;1.70;0.80;;;19.60;95.90;;;;;;5047061;28;20060;-82
2021/05/13 09:51:41;;;;;;;1.15;0.40;;;19.50;93.90;;;;;;5033378;28;20392;-82
2021/05/13 09:54:18;;;;;;;1.35;0.50;;;19.60;94.20;;;;;;5025455;28;20048;-82
2021/05/13 09:56:52;;;;;;;3.70;0.98;;;19.70;95.40;;;;;;5025573;28;20033;-83
2021/05/13 09:59:38;;;;;;;;;;;20.00;94.90;;;;;;5046451;28;20021;-82
2021/05/13 10:02:06;;;;;;;1.38;0.57;;;19.90;93.50;;;;;;5026797;28;19955;-82
2021/05/13 10:04:32;;;;;;;3.67;0.60;;;20.10;92.90;;;;;;5026742;28;20021;-83
2021/05/13 10:06:58;;;;;;;1.65;0.45;;;20.40;93.20;;;;;;5026407;28;20899;-83
2021/05/13 10:09:24;;;;;;;1.42;0.43;;;20.80;92.10;;;;;;5026147;28;20407;-83
2021/05/13 10:11:58;;;;;;;1.75;0.40;;;20.70;92.00;;;;;;5025256;28;20053;-82
2021/05/13 10:14:26;;;;;;;2.40;0.55;;;20.70;91.10;;;;;;5029816;28;20025;-83
2021/05/13 10:16:54;;;;;;;0.43;0.30;;;20.60;91.60;;;;;;5046051;28;20033;-83
2021/05/13 10:19:33;;;;;;;2.55;0.45;;;20.90;91.20;;;;;;5046281;28;20691;-83
2021/05/13 10:22:01;;;;;;;0.70;0.40;;;21.30;91.50;;;;;;5032433;28;20033;-82
2021/05/13 10:24:27;;;;;;;0.35;0.20;;;21.60;91.00;;;;;;5043430;28;20021;-83
2021/05/13 10:26:53;;;;;;;1.25;0.60;;;21.50;90.20;;;;;;5046209;28;20094;-82
2021/05/13 10:29:22;;;;;;;1.55;0.57;;;21.60;91.20;;;;;;5045984;28;20037;-83
2021/05/13 10:35:12;;;;;;;1.10;0.30;;;21.60;89.70;;;;;;5029914;28;20045;-83
2021/05/13 10:37:41;;;;;;;0.20;0.20;;;21.20;89.40;;;;;;5026075;28;20495;-83
2021/05/13 10:42:56;;;;;;;0.60;0.20;;;21.50;89.70;;;;;;5025723;28;20037;-83
2021/05/13 10:45:39;;;;;;;0.88;0.35;;;21.80;89.60;;;;;;5025887;28;20028;-84
2021/05/13 10:48:10;;;;;;;1.30;0.30;;;22.10;88.60;;;;;;5026472;28;20036;-82
2021/05/13 10:50:45;;;;;;;0.65;0.20;;;21.70;90.20;;;;;;5032901;28;20072;-83
2021/05/13 10:56:24;;;;;;;1.02;0.20;;;22.40;85.60;;;;;;5045608;28;20531;-83
2021/05/13 10:58:58;;;;;;;1.50;0.35;;;22.40;85.20;;;;;;5045500;28;20079;-83
2021/05/13 11:01:48;;;;;;;1.85;0.60;;;22.50;83.80;;;;;;5045467;28;20513;-83
2021/05/13 11:04:20;;;;;;;1.67;0.40;;;22.50;86.60;;;;;;5034852;28;20087;-83
2021/05/13 11:06:47;;;;;;;2.65;0.40;;;22.50;84.20;;;;;;5039798;28;20029;-83
2021/05/13 11:09:47;;;;;;;0.85;0.20;;;22.40;86.70;;;;;;5045310;28;20087;-83
2021/05/13 11:12:16;;;;;;;3.60;0.57;;;22.00;81.60;;;;;;5041050;28;20499;-83
2021/05/13 11:15:03;;;;;;;10.30;4.43;;;22.00;83.00;;;;;;5029679;28;20021;-83
2021/05/13 11:20:59;;;;;;;24.70;11.32;;;22.90;86.30;;;;;;5044865;28;20029;-83
2021/05/13 11:23:34;;;;;;;1.50;0.50;;;22.70;84.90;;;;;;5032277;28;20256;-83
2021/05/13 11:26:09;;;;;;;3.05;0.60;;;22.90;88.00;;;;;;5024917;28;20029;-83
2021/05/13 11:28:46;;;;;;;2.15;0.98;;;23.10;87.90;;;;;;5025426;28;20074;-83
2021/05/13 11:31:15;;;;;;;1.38;0.57;;;22.70;85.60;;;;;;5035286;28;20040;-81
2021/05/13 11:33:51;;;;;;;1.90;0.57;;;22.80;90.70;;;;;;5044069;28;20056;-79
2021/05/13 11:36:23;;;;;;;1.55;0.40;;;22.90;88.70;;;;;;5025561;28;20029;-77
2021/05/13 11:38:55;;;;;;;0.77;0.30;;;23.10;89.30;;;;;;5023837;28;20041;-79
2021/05/13 11:41:21;;;;;;;1.00;0.20;;;23.30;89.10;;;;;;5044238;28;20390;-82
2021/05/13 11:43:47;;;;;;;1.58;0.43;;;22.80;88.30;;;;;;5045979;28;20025;-82
2021/05/13 11:46:20;;;;;;;3.47;0.43;;;22.50;85.20;;;;;;5040868;28;20021;-82
2021/05/13 11:48:48;;;;;;;3.40;0.70;;;22.80;89.20;;;;;;5048897;28;20505;-82
2021/05/13 11:51:15;;;;;;;1.35;0.52;;;22.70;87.60;;;;;;5048606;28;20649;-83
2021/05/13 11:53:42;;;;;;;2.78;0.30;;;22.00;87.90;;;;;;5048599;28;20043;-83
2021/05/13 11:56:09;;;;;;;1.17;0.28;;;21.90;90.20;;;;;;5047355;28;20029;-82
2021/05/13 11:58:48;;;;;;;1.48;0.30;;;22.10;90.50;;;;;;5049241;28;20043;-82
2021/05/13 12:01:30;;;;;;;0.68;0.30;;;22.40;90.80;;;;;;5048323;28;20049;-82
2021/05/13 12:04:16;;;;;;;0.95;0.43;;;22.10;90.20;;;;;;5048685;28;20052;-81
2021/05/13 12:07:01;;;;;;;2.13;0.40;;;22.10;90.00;;;;;;5036340;28;20033;-83
2021/05/13 12:09:28;;;;;;;3.53;0.52;;;22.10;90.70;;;;;;5048090;28;20033;-82
2021/05/13 12:11:55;;;;;;;0.73;0.32;;;22.70;90.70;;;;;;5038071;28;20140;-82
2021/05/13 12:14:32;;;;;;;3.05;0.40;;;22.90;90.00;;;;;;5028733;28;20108;-82
2021/05/13 12:17:05;;;;;;;2.80;0.32;;;22.90;89.00;;;;;;5027268;28;20517;-82
2021/05/13 12:19:33;;;;;;;;;;;22.60;88.60;;;;;;5027989;28;20565;-82
2021/05/13 12:22:04;;;;;;;0.60;0.30;;;22.00;88.60;;;;;;5026890;28;19909;-82
2021/05/13 12:24:34;;;;;;;2.08;0.30;;;22.40;90.20;;;;;;5043279;28;20160;-82
2021/05/13 12:27:01;;;;;;;2.85;0.30;;;22.50;90.20;;;;;;5047696;28;20036;-82
2021/05/13 12:29:27;;;;;;;2.60;0.45;;;22.60;89.60;;;;;;5047163;28;20103;-82
2021/05/13 12:31:53;;;;;;;4.78;0.40;;;22.20;89.60;;;;;;5030251;28;20056;-81
2021/05/13 12:34:45;;;;;;;0.82;0.50;;;21.90;89.60;;;;;;5027217;28;20025;-83
2021/05/13 12:37:22;;;;;;;2.60;0.40;;;22.10;89.90;;;;;;5028917;28;20412;-82
2021/05/13 12:39:49;;;;;;;2.60;0.50;;;22.30;88.40;;;;;;5046658;28;20056;-82
2021/05/13 12:42:28;;;;;;;0.47;0.22;;;22.50;87.40;;;;;;5045523;28;20087;-82
2021/05/13 12:45:16;;;;;;;1.23;0.30;;;22.10;88.00;;;;;;5046626;28;20021;-82
2021/05/13 12:47:43;;;;;;;0.65;0.22;;;21.80;88.20;;;;;;5040841;28;20028;-84
2021/05/13 12:50:10;;;;;;;4.10;0.30;;;21.40;88.20;;;;;;5026717;28;20108;-83
2021/05/13 12:52:36;;;;;;;0.17;0.10;;;21.20;88.10;;;;;;5026640;28;20053;-84
2021/05/13 12:55:18;;;;;;;5.50;0.70;;;21.10;87.50;;;;;;5026349;28;20064;-84
2021/05/13 12:57:47;;;;;;;1.58;0.30;;;20.70;89.10;;;;;;5027070;28;20025;-83
2021/05/13 13:00:14;;;;;;;2.10;0.60;;;20.40;89.60;;;;;;5026954;28;20022;-83
2021/05/13 13:02:40;;;;;;;3.45;0.88;;;20.10;88.80;;;;;;5026481;28;20091;-83
2021/05/13 13:05:09;;;;;;;2.63;0.32;;;20.00;90.10;;;;;;5026506;28;20021;-83
2021/05/13 13:07:43;;;;;;;1.73;0.57;;;19.70;90.40;;;;;;5027013;28;20125;-83
2021/05/13 13:10:25;;;;;;;;;;;19.40;90.90;;;;;;5026638;28;20215;-83
2021/05/13 13:13:15;;;;;;;1.17;0.17;;;19.30;91.30;;;;;;5034930;28;19925;-82
2021/05/13 13:15:49;;;;;;;0.75;0.25;;;19.20;91.10;;;;;;5046682;28;20049;-83
2021/05/13 13:18:16;;;;;;;0.98;0.65;;;19.00;91.10;;;;;;5046346;28;20075;-83
2021/05/13 13:20:43;;;;;;;0.82;0.10;;;19.00;90.80;;;;;;5046322;28;20397;-83
2021/05/13 13:23:18;;;;;;;1.27;0.57;;;19.00;90.50;;;;;;5029520;28;20064;-83